Time;durP1;ratioP1;P1;durP2;ratioP2;P2;SDS_P1;SDS_P2;PMS_P1;PMS_P2;Temp;Humidity;BMP_temperature;BMP_pressure;BME280_temperature;BME280_humidity;BME280_pressure;Samples;Min_cycle;Max_cycle;Signal;HPM_P1;HPM_P2
2022/01/03 00:00:52;;;;;;;;;;;;;;;9.81;89.37;101183.19;4984849;28;19926;-68
2022/01/03 00:03:17;;;;;;;;;;;;;;;9.71;89.75;101180.25;4979492;28;20443;-71
2022/01/03 00:05:43;;;;;;;;;;;;;;;9.67;89.77;101176.69;4984872;28;19926;-69
2022/01/03 00:08:09;;;;;;;;;;;;;;;9.59;90.25;101190.97;4980425;28;20369;-68
2022/01/03 00:10:34;;;;;;;;;;;;;;;9.52;90.80;101189.84;4983934;28;19922;-68
2022/01/03 00:13:01;;;;;;;;;;;;;;;9.58;90.83;101200.31;4980221;28;20416;-67
2022/01/03 00:15:26;;;;;;;;;;;;;;;9.54;91.05;101187.34;4983712;28;20024;-69
2022/01/03 00:17:53;;;;;;;;;;;;;;;9.59;90.40;101190.97;4982035;28;19918;-68
2022/01/03 00:20:20;;;;;;;;;;;;;;;9.52;91.02;101194.09;4984868;28;19930;-67
2022/01/03 00:22:51;;;;;;;;;;;;;;;9.45;91.56;101200.69;4983841;28;19988;-69
2022/01/03 00:25:17;;;;;;;;;;;;;;;9.42;91.28;101200.59;4982404;28;19926;-69
2022/01/03 00:27:45;;;;;;;;;;;;;;;9.42;91.18;101200.59;4985790;28;20269;-69
2022/01/03 00:30:11;;;;;;;;;;;;;;;9.41;91.48;101203.97;4983077;28;20009;-70
2022/01/03 00:32:37;;;;;;;;;;;;;;;9.44;90.83;101196.38;4984090;28;20020;-69
2022/01/03 00:35:03;;;;;;;;;;;;;;;9.44;91.10;101203.22;4983735;28;20361;-70
2022/01/03 00:37:30;;;;;;;;;;;;;;;9.39;91.44;101203.03;4983181;28;19937;-67
2022/01/03 00:39:56;;;;;;;;;;;;;;;9.38;91.00;101194.44;4984352;28;19918;-71
2022/01/03 00:42:21;;;;;;;;;;;;;;;9.46;90.64;101205.00;4997824;28;19932;-67
2022/01/03 00:44:48;;;;;;;;;;;;;;;9.45;90.28;101202.38;4982672;28;20008;-71
2022/01/03 00:47:14;;;;;;;;;;;;;;;9.53;89.56;101195.88;4981492;28;20328;-70
2022/01/03 00:49:40;;;;;;;;;;;;;;;9.60;89.53;101205.53;4984210;28;20351;-71
2022/01/03 00:52:05;;;;;;;;;;;;;;;9.63;89.32;101214.22;4985832;28;20013;-68
2022/01/03 00:54:30;;;;;;;;;;;;;;;9.56;88.84;101203.66;4977787;28;19944;-68
2022/01/03 00:57:00;;;;;;;;;;;;;;;9.52;89.40;101202.66;4983029;28;21798;-69
2022/01/03 00:59:46;;;;;;;;;;;;;;;9.54;88.90;101208.75;4981734;28;19976;-68
2022/01/03 01:02:13;;;;;;;;;;;;;;;9.63;88.54;101196.25;4982695;28;19930;-67
2022/01/03 01:04:42;;;;;;;;;;;;;;;9.60;88.73;101196.16;4981852;28;21565;-68
2022/01/03 01:07:09;;;;;;;;;;;;;;;9.61;88.41;101192.75;4983374;28;20340;-68
2022/01/03 01:09:34;;;;;;;;;;;;;;;9.63;88.46;101198.81;4982242;28;20018;-67
2022/01/03 01:12:00;;;;;;;;;;;;;;;9.61;88.45;101197.88;4983862;28;19977;-67
2022/01/03 01:14:26;;;;;;;;;;;;;;;9.58;89.08;101213.16;4985532;28;19922;-67
2022/01/03 01:16:51;;;;;;;;;;;;;;;9.57;88.48;101215.69;4984568;28;19956;-71
2022/01/03 01:19:18;;;;;;;;;;;;;;;9.66;88.25;101213.47;4987357;28;20362;-69
2022/01/03 01:21:43;;;;;;;;;;;;;;;9.70;87.83;101217.00;4985399;28;19929;-69
2022/01/03 01:24:08;;;;;;;;;;;;;;;9.73;87.59;101212.00;4985338;28;21091;-67
2022/01/03 01:29:17;;;;;;;;;;;;;;;9.71;87.60;101218.75;4988699;28;19991;-67
2022/01/03 01:31:48;;;;;;;;;;;;;;;9.67;88.17;101225.50;4987026;28;19918;-67
2022/01/03 01:34:18;;;;;;;;;;;;;;;9.59;88.23;101232.91;4988194;28;19922;-70
2022/01/03 01:36:45;;;;;;;;;;;;;;;9.52;88.17;101236.03;4986050;28;20627;-69
2022/01/03 01:39:10;;;;;;;;;;;;;;;9.50;88.49;101232.53;4985100;28;19936;-69
2022/01/03 01:41:41;;;;;;;;;;;;;;;9.47;88.07;101237.56;4987356;28;19930;-68
2022/01/03 01:44:08;;;;;;;;;;;;;;;9.51;88.05;101242.00;4988582;28;19965;-69
2022/01/03 01:46:35;;;;;;;;;;;;;;;9.54;87.80;101239.56;4985768;28;19925;-69
2022/01/03 01:49:02;;;;;;;;;;;;;;;9.59;87.53;101238.03;4988227;28;19929;-69
2022/01/03 01:51:31;;;;;;;;;;;;;;;9.58;87.57;101228.56;4985505;28;20011;-71
2022/01/03 01:53:56;;;;;;;;;;;;;;;9.50;87.59;101232.53;4986747;28;19937;-67
2022/01/03 01:56:23;;;;;;;;;;;;;;;9.40;87.99;101222.72;4986976;28;19922;-67
2022/01/03 01:58:55;;;;;;;;;;;;;;;9.28;88.56;101222.25;4986282;28;19917;-68
2022/01/03 02:01:20;;;;;;;;;;;;;;;9.24;88.96;101218.72;4985186;28;20403;-70
2022/01/03 02:03:45;;;;;;;;;;;;;;;9.17;89.35;101219.31;4986290;28;19922;-68
2022/01/03 02:06:11;;;;;;;;;;;;;;;9.13;89.30;101225.13;4985356;28;19964;-67
2022/01/03 02:08:44;;;;;;;;;;;;;;;9.02;89.96;101234.06;4986367;28;20060;-67
2022/01/03 02:11:19;;;;;;;;;;;;;;;8.95;90.29;101224.38;4986634;28;19964;-71
2022/01/03 02:13:45;;;;;;;;;;;;;;;8.91;90.56;101223.38;4987562;28;20047;-70
2022/01/03 02:16:11;;;;;;;;;;;;;;;8.91;90.12;101228.50;4985032;28;19929;-69
2022/01/03 02:18:36;;;;;;;;;;;;;;;8.95;90.45;101226.94;4985175;28;19918;-69
2022/01/03 02:21:02;;;;;;;;;;;;;;;8.93;90.47;101237.16;4984384;28;21341;-68
2022/01/03 02:23:28;;;;;;;;;;;;;;;8.85;90.81;101235.94;5000081;28;19922;-68
2022/01/03 02:25:53;;;;;;;;;;;;;;;8.82;90.74;101233.28;4984591;28;19925;-70
2022/01/03 02:28:22;;;;;;;;;;;;;;;8.85;90.52;101229.13;4985986;28;20415;-68
2022/01/03 02:30:48;;;;;;;;;;;;;;;8.81;90.62;101234.09;4985832;28;19930;-68
2022/01/03 02:33:13;;;;;;;;;;;;;;;8.91;90.19;101238.75;4985438;28;19985;-73
2022/01/03 02:35:40;;;;;;;;;;;;;;;8.83;90.56;101237.56;4985597;28;20005;-70
2022/01/03 02:38:07;;;;;;;;;;;;;;;8.71;91.33;101244.78;4985280;28;19926;-68
2022/01/03 02:40:32;;;;;;;;;;;;;;;8.72;91.32;101246.50;4985666;28;21658;-69
2022/01/03 02:42:57;;;;;;;;;;;;;;;8.69;91.38;101239.59;4987421;28;20016;-69
2022/01/03 02:45:23;;;;;;;;;;;;;;;8.77;91.18;101234.75;4984715;28;19926;-69
2022/01/03 02:47:50;;;;;;;;;;;;;;;8.76;91.11;101236.44;4988452;28;19925;-69
2022/01/03 02:50:16;;;;;;;;;;;;;;;8.67;91.50;101235.19;4982439;28;19925;-70
2022/01/03 02:52:41;;;;;;;;;;;;;;;8.66;91.73;101243.69;4982763;28;19926;-68
2022/01/03 02:55:07;;;;;;;;;;;;;;;8.78;91.52;101246.75;4985265;28;19936;-69
2022/01/03 02:57:33;;;;;;;;;;;;;;;8.74;91.63;101224.41;4984821;28;19929;-67
2022/01/03 02:59:59;;;;;;;;;;;;;;;8.76;91.59;101244.16;4983924;28;19925;-69
2022/01/03 03:02:25;;;;;;;;;;;;;;;8.72;91.87;101232.00;4985158;28;20004;-68
2022/01/03 03:04:55;;;;;;;;;;;;;;;8.72;91.70;101241.38;4986151;28;21243;-67
2022/01/03 03:07:21;;;;;;;;;;;;;;;8.66;92.23;101248.81;4983021;28;19932;-67
2022/01/03 03:09:46;;;;;;;;;;;;;;;8.68;91.93;101242.97;4987003;28;19934;-71
2022/01/03 03:12:11;;;;;;;;;;;;;;;8.66;92.18;101242.00;4983138;28;19930;-69
2022/01/03 03:14:38;;;;;;;;;;;;;;;8.61;92.52;101246.06;4977933;28;20301;-68
2022/01/03 03:17:04;;;;;;;;;;;;;;;8.55;92.91;101244.16;4981682;28;20679;-67
2022/01/03 03:19:29;;;;;;;;;;;;;;;8.59;92.88;101247.69;4984775;28;19929;-68
2022/01/03 03:21:54;;;;;;;;;;;;;;;8.58;93.43;101248.50;4982881;28;19973;-68
2022/01/03 03:24:19;;;;;;;;;;;;;;;8.66;92.81;101252.25;4984319;28;19922;-72
2022/01/03 03:26:45;;;;;;;;;;;;;;;8.63;93.39;101261.53;4986053;28;19933;-68
2022/01/03 03:29:10;;;;;;;;;;;;;;;8.74;92.84;101250.91;4986058;28;19921;-68
2022/01/03 03:31:35;;;;;;;;;;;;;;;8.86;92.28;101247.97;4985382;28;19929;-68
2022/01/03 03:34:00;;;;;;;;;;;;;;;8.88;92.41;101248.03;4985573;28;20016;-67
2022/01/03 03:36:26;;;;;;;;;;;;;;;8.87;92.40;101254.84;4984452;28;19926;-70
2022/01/03 03:38:51;;;;;;;;;;;;;;;8.94;92.25;101249.16;4983975;28;19930;-68
2022/01/03 03:41:16;;;;;;;;;;;;;;;8.93;92.44;101251.66;4984638;28;20334;-68
2022/01/03 03:43:41;;;;;;;;;;;;;;;8.94;92.12;101233.78;4981576;28;19934;-69
2022/01/03 03:46:07;;;;;;;;;;;;;;;8.88;92.60;101243.78;4982483;28;19932;-70
2022/01/03 03:48:34;;;;;;;;;;;;;;;8.89;92.49;101234.41;4985407;28;20005;-70
2022/01/03 03:50:59;;;;;;;;;;;;;;;8.90;92.27;101231.88;4985799;28;19976;-68
2022/01/03 03:53:26;;;;;;;;;;;;;;;8.92;92.30;101234.50;4983733;28;19926;-69
2022/01/03 03:55:51;;;;;;;;;;;;;;;8.95;92.24;101235.50;4984041;28;20385;-68
2022/01/03 03:58:16;;;;;;;;;;;;;;;8.99;92.05;101228.84;4984213;28;19940;-68
2022/01/03 04:00:42;;;;;;;;;;;;;;;9.05;91.84;101232.50;4983528;28;19930;-68
2022/01/03 04:03:07;;;;;;;;;;;;;;;8.96;92.00;101234.69;4984457;28;19929;-68
2022/01/03 04:05:33;;;;;;;;;;;;;;;8.88;92.41;101228.38;4979380;28;20754;-68
2022/01/03 04:07:58;;;;;;;;;;;;;;;8.82;92.77;101233.28;4983662;28;19952;-68
2022/01/03 04:10:23;;;;;;;;;;;;;;;8.85;92.53;101225.69;4985566;28;19930;-68
2022/01/03 04:12:49;;;;;;;;;;;;;;;8.73;93.12;101222.63;4982771;28;19928;-68
2022/01/03 04:15:14;;;;;;;;;;;;;;;8.71;92.89;101219.13;4984100;28;20407;-69
2022/01/03 04:17:40;;;;;;;;;;;;;;;8.66;93.23;101215.50;4982525;28;19925;-67
2022/01/03 04:20:06;;;;;;;;;;;;;;;8.71;93.19;101217.44;4985367;28;20273;-71
2022/01/03 04:22:31;;;;;;;;;;;;;;;8.71;93.30;101209.75;4981380;28;19933;-69
2022/01/03 04:24:56;;;;;;;;;;;;;;;8.79;93.12;101203.22;4985046;28;19926;-69
2022/01/03 04:27:22;;;;;;;;;;;;;;;8.68;93.07;101201.06;4983211;28;19929;-69
2022/01/03 04:29:47;;;;;;;;;;;;;;;8.65;93.34;101195.81;4984524;28;19929;-69
2022/01/03 04:32:12;;;;;;;;;;;;;;;8.59;93.71;101205.00;4983053;28;19917;-68
2022/01/03 04:34:37;;;;;;;;;;;;;;;8.67;93.55;101207.84;4984229;28;19937;-70
2022/01/03 04:37:03;;;;;;;;;;;;;;;8.83;93.01;101209.38;4981332;28;19930;-68
2022/01/03 04:39:28;;;;;;;;;;;;;;;8.76;93.40;101208.25;4983905;28;19929;-68
2022/01/03 04:41:53;;;;;;;;;;;;;;;8.81;93.41;101211.88;4983307;28;20410;-68
2022/01/03 04:44:19;;;;;;;;;;;;;;;8.89;92.99;101212.19;4981905;28;19926;-69
2022/01/03 04:46:44;;;;;;;;;;;;;;;8.94;92.75;101218.38;4985984;28;19926;-68
2022/01/03 04:49:09;;;;;;;;;;;;;;;8.90;92.78;101207.94;4988464;28;20384;-69
2022/01/03 04:51:35;;;;;;;;;;;;;;;8.85;93.25;101207.72;4989644;28;20440;-69
2022/01/03 04:54:00;;;;;;;;;;;;;;;8.81;93.27;101205.88;4990340;28;19929;-69
2022/01/03 04:56:28;;;;;;;;;;;;;;;8.80;93.33;101196.44;4991097;28;19930;-68
2022/01/03 04:58:54;;;;;;;;;;;;;;;8.85;92.89;101206.03;4987545;28;20312;-69
2022/01/03 05:01:20;;;;;;;;;;;;;;;8.78;93.08;101200.63;4988874;28;19926;-70
2022/01/03 05:03:45;;;;;;;;;;;;;;;8.70;93.59;101202.00;4991537;28;19925;-68
2022/01/03 05:06:11;;;;;;;;;;;;;;;8.77;93.39;101210.00;4990550;28;19973;-67
2022/01/03 05:08:36;;;;;;;;;;;;;;;8.73;93.51;101189.28;4987061;28;20390;-68
2022/01/03 05:11:02;;;;;;;;;;;;;;;8.80;93.19;101199.88;4991501;28;19928;-69
2022/01/03 05:13:31;;;;;;;;;;;;;;;8.73;93.31;101195.28;4987641;28;20339;-68
2022/01/03 05:15:57;;;;;;;;;;;;;;;8.85;92.70;101192.34;4990207;28;20036;-69
2022/01/03 05:18:25;;;;;;;;;;;;;;;8.77;92.90;101181.78;4987972;28;21738;-69
2022/01/03 05:20:50;;;;;;;;;;;;;;;8.72;93.38;101175.59;4989475;28;19917;-70
2022/01/03 05:23:15;;;;;;;;;;;;;;;8.72;93.32;101183.28;4991055;28;19934;-68
2022/01/03 05:25:40;;;;;;;;;;;;;;;8.64;93.53;101179.56;4988529;28;20576;-68
2022/01/03 05:28:06;;;;;;;;;;;;;;;8.71;93.54;101183.25;4991161;28;20397;-69
2022/01/03 05:30:31;;;;;;;;;;;;;;;8.70;93.66;101184.06;4989047;28;19940;-69
2022/01/03 05:32:56;;;;;;;;;;;;;;;8.68;94.03;101178.00;4988328;28;19940;-70
2022/01/03 05:35:22;;;;;;;;;;;;;;;8.65;94.22;101173.59;4989530;28;20065;-69
2022/01/03 05:37:47;;;;;;;;;;;;;;;8.64;94.42;101178.69;4989969;28;19925;-70
2022/01/03 05:40:12;;;;;;;;;;;;;;;8.67;94.02;101174.53;4988486;28;19929;-69
2022/01/03 05:42:39;;;;;;;;;;;;;;;8.67;94.17;101174.53;4989865;28;20416;-68
2022/01/03 05:45:04;;;;;;;;;;;;;;;8.66;94.14;101179.59;4989170;28;20418;-70
2022/01/03 05:47:30;;;;;;;;;;;;;;;8.72;93.85;101172.16;4991071;28;19930;-69
2022/01/03 05:49:56;;;;;;;;;;;;;;;8.68;93.65;101171.19;4988527;28;19929;-70
2022/01/03 05:52:22;;;;;;;;;;;;;;;8.73;93.16;101164.53;4988710;28;19918;-70
2022/01/03 05:54:47;;;;;;;;;;;;;;;8.76;93.40;101172.34;4988652;28;19933;-70
2022/01/03 05:57:13;;;;;;;;;;;;;;;8.77;93.14;101165.53;4988083;28;19926;-68
2022/01/03 05:59:38;;;;;;;;;;;;;;;8.72;93.36;101169.59;4987485;28;20455;-69
2022/01/03 06:02:04;;;;;;;;;;;;;;;8.69;93.90;101174.63;4984535;28;20005;-68
2022/01/03 06:04:54;;;;;;;;;;;;;;;8.69;94.02;101169.50;4986579;28;19930;-70
2022/01/03 06:07:20;;;;;;;;;;;;;;;8.75;93.55;101164.59;4986392;28;19980;-71
2022/01/03 06:09:46;;;;;;;;;;;;;;;8.73;93.53;101173.91;4988421;28;19925;-69
2022/01/03 06:12:11;;;;;;;;;;;;;;;8.70;93.81;101163.53;4984999;28;19918;-69
2022/01/03 06:14:37;;;;;;;;;;;;;;;8.66;94.01;101166.78;4985473;28;20549;-70
2022/01/03 06:17:03;;;;;;;;;;;;;;;8.72;93.64;101165.34;4984725;28;19925;-68
2022/01/03 06:19:29;;;;;;;;;;;;;;;8.67;93.80;101160.84;4986265;28;19948;-70
2022/01/03 06:21:55;;;;;;;;;;;;;;;8.72;93.20;101162.78;4984654;28;20477;-70
2022/01/03 06:24:20;;;;;;;;;;;;;;;8.69;93.84;101161.81;4985936;28;19925;-70
2022/01/03 06:26:47;;;;;;;;;;;;;;;8.67;93.53;101160.84;4986300;28;19922;-70
2022/01/03 06:29:14;;;;;;;;;;;;;;;8.62;93.87;101163.25;4988062;28;19979;-70
2022/01/03 06:31:40;;;;;;;;;;;;;;;8.65;93.59;101154.78;4988537;28;20420;-69
2022/01/03 06:34:06;;;;;;;;;;;;;;;8.69;93.63;101165.25;4985645;28;19930;-71
2022/01/03 06:36:31;;;;;;;;;;;;;;;8.63;94.06;101161.56;4982317;28;19922;-70
2022/01/03 06:38:56;;;;;;;;;;;;;;;8.53;93.94;101148.34;4984107;28;19936;-69
2022/01/03 06:41:22;;;;;;;;;;;;;;;8.43;94.69;101151.34;4986496;28;20007;-68
2022/01/03 06:43:48;;;;;;;;;;;;;;;8.47;94.25;101157.47;4990881;28;19924;-70
2022/01/03 06:46:13;;;;;;;;;;;;;;;8.55;94.04;101146.75;4984930;28;19937;-71
2022/01/03 06:48:38;;;;;;;;;;;;;;;8.52;93.99;101156.84;4986141;28;19922;-68
2022/01/03 06:51:03;;;;;;;;;;;;;;;8.52;94.61;101149.16;4984992;28;19954;-68
2022/01/03 06:53:29;;;;;;;;;;;;;;;8.48;94.82;101149.84;4984488;28;19921;-69
2022/01/03 06:55:54;;;;;;;;;;;;;;;8.54;94.85;101149.22;4985982;28;19917;-71
2022/01/03 06:58:19;;;;;;;;;;;;;;;8.62;94.42;101152.13;4983563;28;20446;-68
2022/01/03 07:00:45;;;;;;;;;;;;;;;8.62;94.64;101145.31;4986500;28;20361;-70
2022/01/03 07:03:10;;;;;;;;;;;;;;;8.70;94.30;101145.59;4985282;28;19933;-70
2022/01/03 07:05:35;;;;;;;;;;;;;;;8.67;94.57;101142.91;4984205;28;19968;-70
2022/01/03 07:08:01;;;;;;;;;;;;;;;8.75;94.53;101138.97;4983838;28;19925;-69
2022/01/03 07:10:26;;;;;;;;;;;;;;;8.76;94.41;101146.72;4985435;28;19948;-70
2022/01/03 07:12:53;;;;;;;;;;;;;;;8.73;94.81;101138.88;4985073;28;20016;-72
2022/01/03 07:20:48;;;;;;;;;;;;;;;8.75;95.29;101133.84;4984833;28;19968;-69
2022/01/03 07:23:14;;;;;;;;;;;;;;;8.66;96.31;101134.34;4983676;28;19961;-73
2022/01/03 07:25:39;;;;;;;;;;;;;;;8.73;95.76;101125.19;4984627;28;20083;-70
2022/01/03 07:28:04;;;;;;;;;;;;;;;8.81;95.45;101134.09;4986193;28;19922;-70
2022/01/03 07:30:30;;;;;;;;;;;;;;;8.76;95.56;101143.28;4982966;28;19941;-70
2022/01/03 07:32:55;;;;;;;;;;;;;;;8.83;94.99;101143.56;4984266;28;19926;-71
2022/01/03 07:35:20;;;;;;;;;;;;;;;8.69;95.80;101149.84;4984091;28;19922;-69
2022/01/03 07:37:45;;;;;;;;;;;;;;;8.65;95.97;101145.41;4984687;28;19929;-72
2022/01/03 07:40:11;;;;;;;;;;;;;;;8.55;96.42;101138.16;4984360;28;20312;-70
2022/01/03 07:42:37;;;;;;;;;;;;;;;8.55;96.20;101133.94;4980908;28;19930;-70
2022/01/03 07:45:02;;;;;;;;;;;;;;;8.48;96.87;101144.72;4982540;28;19926;-70
2022/01/03 07:47:27;;;;;;;;;;;;;;;8.37;97.76;101148.53;4982792;28;19977;-69
2022/01/03 07:49:53;;;;;;;;;;;;;;;8.28;97.56;101151.56;4983707;28;20413;-69
2022/01/03 07:52:18;;;;;;;;;;;;;;;8.31;97.03;101145.66;4983887;28;20371;-70
2022/01/03 07:54:44;;;;;;;;;;;;;;;8.26;98.16;101157.44;4985467;28;19976;-70
2022/01/03 07:57:09;;;;;;;;;;;;;;;8.29;98.28;101152.44;4982423;28;19930;-70
2022/01/03 07:59:34;;;;;;;;;;;;;;;8.31;97.37;101164.50;4985077;28;19980;-70
2022/01/03 08:01:59;;;;;;;;;;;;;;;8.34;97.30;101166.31;4984141;28;19942;-73
2022/01/03 08:04:25;;;;;;;;;;;;;;;8.38;97.87;101163.09;4985254;28;19929;-70
2022/01/03 08:06:50;;;;;;;;;;;;;;;8.49;96.76;101150.72;4982844;28;19925;-71
2022/01/03 08:09:16;;;;;;;;;;;;;;;8.58;96.84;101151.09;4981064;28;19996;-71
2022/01/03 08:11:41;;;;;;;;;;;;;;;8.65;96.44;101153.09;4985245;28;19933;-71
2022/01/03 08:14:06;;;;;;;;;;;;;;;8.64;96.46;101151.34;4982420;28;20566;-71
2022/01/03 08:16:32;;;;;;;;;;;;;;;8.70;96.21;101159.28;4979973;28;19930;-72
2022/01/03 08:18:57;;;;;;;;;;;;;;;8.80;95.37;101146.03;4982681;28;19925;-72
2022/01/03 08:21:22;;;;;;;;;;;;;;;8.75;96.14;101149.22;4982439;28;20445;-72
2022/01/03 08:23:48;;;;;;;;;;;;;;;8.76;96.01;101148.41;4982672;28;19940;-71
2022/01/03 08:26:13;;;;;;;;;;;;;;;8.82;95.75;101152.09;4984884;28;20025;-71
2022/01/03 08:28:38;;;;;;;;;;;;;;;8.91;95.18;101151.56;4981726;28;19929;-71
2022/01/03 08:31:03;;;;;;;;;;;;;;;8.89;95.48;101142.94;4981562;28;19925;-71
2022/01/03 08:33:29;;;;;;;;;;;;;;;8.92;95.22;101153.34;4965219;28;19928;-69
2022/01/03 08:35:54;;;;;;;;;;;;;;;9.10;94.30;101138.66;4980508;28;19929;-72
2022/01/03 08:38:19;;;;;;;;;;;;;;;9.14;93.57;101140.50;4980747;28;20340;-70
2022/01/03 08:40:46;;;;;;;;;;;;;;;9.05;94.44;101139.28;4980515;28;19926;-70
2022/01/03 08:43:11;;;;;;;;;;;;;;;9.09;94.16;101142.00;4980040;28;20361;-72
2022/01/03 08:45:36;;;;;;;;;;;;;;;9.20;93.38;101151.81;4987564;28;19926;-70
2022/01/03 08:48:01;;;;;;;;;;;;;;;9.23;93.46;101157.09;4984211;28;19969;-70
2022/01/03 08:50:27;;;;;;;;;;;;;;;9.18;93.71;101156.03;4986118;28;20021;-69
2022/01/03 08:52:52;;;;;;;;;;;;;;;9.25;93.44;101158.00;4982813;28;20011;-69
2022/01/03 08:55:19;;;;;;;;;;;;;;;9.26;93.16;101165.75;4988165;28;19976;-70
2022/01/03 08:57:47;;;;;;;;;;;;;;;9.25;93.42;101168.28;4988044;28;20405;-69
2022/01/03 09:00:13;;;;;;;;;;;;;;;9.36;92.88;101183.25;4988303;28;20013;-72
2022/01/03 09:02:38;;;;;;;;;;;;;;;9.34;92.55;101186.56;4980663;28;20370;-71
2022/01/03 09:05:04;;;;;;;;;;;;;;;9.43;92.51;101186.94;4986388;28;19921;-70
2022/01/03 09:07:30;;;;;;;;;;;;;;;9.44;93.10;101175.84;4990516;28;19925;-70
2022/01/03 09:09:55;;;;;;;;;;;;;;;9.61;92.85;101174.78;4985579;28;19988;-69
2022/01/03 09:12:20;;;;;;;;;;;;;;;9.79;92.85;101174.56;4989541;28;20521;-70
2022/01/03 09:14:46;;;;;;;;;;;;;;;10.03;90.69;101166.00;4987442;28;19921;-69
2022/01/03 09:17:12;;;;;;;;;;;;;;;10.00;91.38;101158.16;4990223;28;19969;-71
2022/01/03 09:19:37;;;;;;;;;;;;;;;10.05;88.68;101159.22;4987878;28;19976;-70
2022/01/03 09:30:04;;;;;;;;;;;;;;;9.93;90.84;101157.09;4988947;28;19991;-72
2022/01/03 09:32:29;;;;;;;;;;;;;;;10.08;88.90;101147.34;4982508;28;19933;-72
2022/01/03 09:34:54;;;;;;;;;;;;;;;10.16;88.32;101140.78;4990063;28;19926;-70
2022/01/03 09:37:21;;;;;;;;;;;;;;;10.17;89.05;101137.38;4989303;28;19971;-68
2022/01/03 09:39:47;;;;;;;;;;;;;;;10.09;88.61;101137.94;4990286;28;19922;-69
2022/01/03 09:42:13;;;;;;;;;;;;;;;10.06;88.21;101136.13;4987840;28;19948;-70
2022/01/03 09:44:41;;;;;;;;;;;;;;;10.03;89.65;101117.19;4990036;28;19930;-69
2022/01/03 09:47:09;;;;;;;;;;;;;;;10.14;88.71;101129.56;4991543;28;19926;-72
2022/01/03 09:49:37;;;;;;;;;;;;;;;10.23;88.56;101135.84;4984721;28;19928;-69
2022/01/03 09:52:04;;;;;;;;;;;;;;;10.62;88.73;101146.63;4984641;28;19997;-69
2022/01/03 09:54:29;;;;;;;;;;;;;;;11.02;85.55;101134.16;4986061;28;20367;-69
2022/01/03 09:56:56;;;;;;;;;;;;;;;11.28;85.91;101134.06;4988692;28;19973;-70
2022/01/03 09:59:22;;;;;;;;;;;;;;;11.63;81.83;101136.78;4985797;28;20009;-71
2022/01/03 10:01:47;;;;;;;;;;;;;;;11.63;82.51;101129.91;4988185;28;20035;-69
2022/01/03 10:04:13;;;;;;;;;;;;;;;11.77;84.04;101131.19;4987831;28;19928;-69
2022/01/03 10:06:39;;;;;;;;;;;;;;;11.87;82.43;101121.16;4992647;28;19929;-70
2022/01/03 10:09:04;;;;;;;;;;;;;;;11.77;80.62;101135.47;4989264;28;19917;-70
2022/01/03 10:11:30;;;;;;;;;;;;;;;11.49;81.50;101136.41;4987629;28;20289;-70
2022/01/03 10:13:55;;;;;;;;;;;;;;;11.21;82.69;101130.44;4987032;28;20282;-70
2022/01/03 10:16:20;;;;;;;;;;;;;;;11.06;83.59;101124.84;4987472;28;19925;-70
2022/01/03 10:18:46;;;;;;;;;;;;;;;11.16;84.47;101132.03;4983829;28;19928;-72
2022/01/03 10:21:12;;;;;;;;;;;;;;;11.21;84.19;101127.84;4987444;28;20127;-70
2022/01/03 10:23:51;;;;;;;;;;;;;;;11.50;84.69;101130.41;4984356;28;20380;-72
2022/01/03 10:26:23;;;;;;;;;;;;;;;11.64;82.04;101136.81;5002333;28;20032;-71
2022/01/03 10:28:48;;;;;;;;;;;;;;;11.57;81.36;101132.31;4985242;28;20124;-70
2022/01/03 10:31:17;;;;;;;;;;;;;;;11.51;81.29;101127.00;4985377;28;19933;-72
2022/01/03 10:33:43;;;;;;;;;;;;;;;11.39;82.03;101114.66;4983791;28;19980;-72
2022/01/03 10:36:24;;;;;;;;;;;;;;;11.34;82.57;101110.19;4986737;28;19926;-70
2022/01/03 10:38:50;;;;;;;;;;;;;;;11.25;81.83;101116.84;4990294;28;19971;-69
2022/01/03 10:41:16;;;;;;;;;;;;;;;11.03;83.22;101117.00;4989795;28;19926;-70
2022/01/03 10:43:46;;;;;;;;;;;;;;;10.95;83.33;101110.78;4987809;28;20301;-70
2022/01/03 10:46:23;;;;;;;;;;;;;;;10.90;83.46;101096.88;4978863;28;19961;-70
2022/01/03 10:48:49;;;;;;;;;;;;;;;10.79;84.47;101100.81;4988021;28;20597;-70
2022/01/03 10:51:25;;;;;;;;;;;;;;;10.73;83.62;101098.94;4990652;28;19928;-71
2022/01/03 10:53:51;;;;;;;;;;;;;;;10.89;83.98;101088.31;4987418;28;19937;-70
2022/01/03 10:56:20;;;;;;;;;;;;;;;10.64;85.09;101094.38;4983112;28;20020;-70
2022/01/03 10:58:45;;;;;;;;;;;;;;;10.70;84.75;101086.88;4986972;28;19917;-71
2022/01/03 11:01:18;;;;;;;;;;;;;;;10.71;84.68;101086.03;4986306;28;19941;-70
2022/01/03 11:03:45;;;;;;;;;;;;;;;10.78;84.43;101078.50;4990622;28;19932;-71
2022/01/03 11:06:23;;;;;;;;;;;;;;;10.64;85.00;101073.81;4985586;28;19918;-69
2022/01/03 11:11:38;;;;;;;;;;;;;;;10.57;84.63;101065.88;4989761;28;19946;-70
2022/01/03 11:14:03;;;;;;;;;;;;;;;10.63;84.69;101066.06;4985880;28;20048;-70
2022/01/03 11:16:32;;;;;;;;;;;;;;;10.60;84.49;101066.81;4985516;28;20004;-70
2022/01/03 11:18:58;;;;;;;;;;;;;;;10.70;84.27;101063.72;4984101;28;19922;-71
2022/01/03 11:21:24;;;;;;;;;;;;;;;10.60;85.33;101061.69;4988923;28;20020;-70
2022/01/03 11:24:01;;;;;;;;;;;;;;;10.65;85.57;101059.25;4985152;28;19936;-70
2022/01/03 11:26:28;;;;;;;;;;;;;;;10.65;85.31;101064.41;4990804;28;19924;-71
2022/01/03 11:28:54;;;;;;;;;;;;;;;10.61;85.11;101058.28;4981640;28;19960;-69
2022/01/03 11:31:20;;;;;;;;;;;;;;;10.69;85.62;101054.25;4978508;28;20349;-70
2022/01/03 11:33:47;;;;;;;;;;;;;;;10.80;84.13;101058.84;4981934;28;20369;-70
2022/01/03 11:36:12;;;;;;;;;;;;;;;10.91;84.13;101047.19;4987692;28;19918;-73
2022/01/03 11:38:39;;;;;;;;;;;;;;;10.95;83.42;101054.16;4984420;28;20024;-70
2022/01/03 11:41:05;;;;;;;;;;;;;;;10.89;84.07;101052.28;4985057;28;19979;-70
2022/01/03 11:43:34;;;;;;;;;;;;;;;10.72;84.43;101049.19;4990904;28;19921;-69
2022/01/03 11:46:00;;;;;;;;;;;;;;;10.73;83.86;101047.50;4984070;28;20383;-69
2022/01/03 11:48:31;;;;;;;;;;;;;;;10.74;84.93;101039.84;4989162;28;19918;-71
2022/01/03 11:50:58;;;;;;;;;;;;;;;10.71;84.81;101029.47;4984950;28;20052;-70
2022/01/03 11:53:24;;;;;;;;;;;;;;;10.70;84.83;101026.84;4987756;28;20379;-70
2022/01/03 11:55:50;;;;;;;;;;;;;;;10.61;85.20;101026.56;4984140;28;20021;-70
2022/01/03 11:58:28;;;;;;;;;;;;;;;10.57;85.54;101017.88;4982500;28;19922;-70
2022/01/03 12:03:50;;;;;;;;;;;;;;;10.61;84.65;101008.56;4984376;28;19976;-71
2022/01/03 12:06:23;;;;;;;;;;;;;;;10.70;84.61;101009.72;4985980;28;20376;-70
2022/01/03 12:08:55;;;;;;;;;;;;;;;10.76;84.62;101014.16;4984352;28;19932;-70
2022/01/03 12:11:22;;;;;;;;;;;;;;;10.85;84.56;101000.69;4985817;28;19926;-72
2022/01/03 12:13:52;;;;;;;;;;;;;;;10.85;84.12;101009.28;4984688;28;19917;-71
2022/01/03 12:16:18;;;;;;;;;;;;;;;10.80;84.43;101003.16;4985765;28;19925;-70
2022/01/03 12:18:56;;;;;;;;;;;;;;;10.79;83.84;100998.81;4985849;28;20076;-70
2022/01/03 12:21:56;;;;;;;;;;;;;;;10.71;84.73;100993.44;4986601;28;19918;-70
2022/01/03 12:24:42;;;;;;;;;;;;;;;10.75;84.66;100986.72;4988354;28;21090;-70
2022/01/03 12:27:10;;;;;;;;;;;;;;;10.68;84.87;100977.06;4987105;28;19969;-71
2022/01/03 12:29:53;;;;;;;;;;;;;;;10.72;85.07;100971.16;4984105;28;19926;-71
2022/01/03 12:32:19;;;;;;;;;;;;;;;10.77;84.30;100977.31;4986660;28;20284;-69
2022/01/03 12:34:45;;;;;;;;;;;;;;;10.72;84.59;100963.47;4987831;28;20377;-70
2022/01/03 12:37:13;;;;;;;;;;;;;;;10.69;84.47;100973.66;4987819;28;19928;-70
2022/01/03 12:39:57;;;;;;;;;;;;;;;10.69;84.48;100971.09;4987181;28;20017;-71
2022/01/03 12:42:41;;;;;;;;;;;;;;;10.74;83.17;100959.25;4988747;28;20360;-70
2022/01/03 12:45:07;;;;;;;;;;;;;;;10.68;83.26;100962.50;4978383;28;19925;-71
2022/01/03 12:47:36;;;;;;;;;;;;;;;10.81;82.87;100953.44;4982885;28;20283;-70
2022/01/03 12:50:21;;;;;;;;;;;;;;;10.70;83.10;100957.41;4983660;28;19940;-70
2022/01/03 12:52:47;;;;;;;;;;;;;;;10.68;82.60;100941.06;4984503;28;20016;-72
2022/01/03 12:55:36;;;;;;;;;;;;;;;10.69;83.34;100943.69;4986817;28;20009;-70
2022/01/03 12:58:01;;;;;;;;;;;;;;;10.71;82.81;100939.44;4985256;28;19921;-69
2022/01/03 13:00:59;;;;;;;;;;;;;;;10.68;82.54;100931.66;4983536;28;19922;-70
2022/01/03 13:03:25;;;;;;;;;;;;;;;10.64;81.68;100919.53;4981037;28;19930;-71